sensor_id;sensor_type;location;lat;lon;timestamp;P1;durP1;ratioP1;P2;durP2;ratioP2
59922;SDS011;45778;51.142;3.732;2023-03-23T00:01:23;2.28;;;1.13;;
59922;SDS011;45778;51.142;3.732;2023-03-23T00:03:52;2.63;;;1.33;;
59922;SDS011;45778;51.142;3.732;2023-03-23T00:06:19;2.85;;;1.15;;
59922;SDS011;45778;51.142;3.732;2023-03-23T00:08:47;2.63;;;1.50;;
59922;SDS011;45778;51.142;3.732;2023-03-23T00:11:16;2.10;;;1.02;;
59922;SDS011;45778;51.142;3.732;2023-03-23T00:13:45;2.28;;;1.20;;
59922;SDS011;45778;51.142;3.732;2023-03-23T00:16:12;2.83;;;1.40;;
59922;SDS011;45778;51.142;3.732;2023-03-23T00:18:45;2.60;;;0.85;;
59922;SDS011;45778;51.142;3.732;2023-03-23T00:21:11;2.20;;;1.40;;
59922;SDS011;45778;51.142;3.732;2023-03-23T00:23:37;3.22;;;1.33;;
59922;SDS011;45778;51.142;3.732;2023-03-23T00:26:04;3.55;;;1.98;;
59922;SDS011;45778;51.142;3.732;2023-03-23T00:28:30;5.10;;;1.70;;
59922;SDS011;45778;51.142;3.732;2023-03-23T00:30:57;2.85;;;1.50;;
59922;SDS011;45778;51.142;3.732;2023-03-23T00:33:28;1.60;;;1.08;;
59922;SDS011;45778;51.142;3.732;2023-03-23T00:35:58;2.05;;;1.42;;
59922;SDS011;45778;51.142;3.732;2023-03-23T00:38:24;3.28;;;1.30;;
59922;SDS011;45778;51.142;3.732;2023-03-23T00:40:50;2.80;;;1.33;;
59922;SDS011;45778;51.142;3.732;2023-03-23T00:43:17;2.75;;;1.50;;
59922;SDS011;45778;51.142;3.732;2023-03-23T00:45:43;1.63;;;1.27;;
59922;SDS011;45778;51.142;3.732;2023-03-23T00:48:10;2.08;;;1.30;;
59922;SDS011;45778;51.142;3.732;2023-03-23T00:50:39;4.28;;;1.90;;
59922;SDS011;45778;51.142;3.732;2023-03-23T00:53:05;3.08;;;1.55;;
59922;SDS011;45778;51.142;3.732;2023-03-23T00:55:31;2.33;;;1.30;;
59922;SDS011;45778;51.142;3.732;2023-03-23T00:57:58;2.13;;;1.30;;
59922;SDS011;45778;51.142;3.732;2023-03-23T01:00:24;2.45;;;1.48;;
59922;SDS011;45778;51.142;3.732;2023-03-23T01:02:50;4.35;;;1.40;;
59922;SDS011;45778;51.142;3.732;2023-03-23T01:05:17;1.83;;;0.73;;
59922;SDS011;45778;51.142;3.732;2023-03-23T01:07:43;3.72;;;1.17;;
59922;SDS011;45778;51.142;3.732;2023-03-23T01:10:10;2.72;;;1.33;;
59922;SDS011;45778;51.142;3.732;2023-03-23T01:15:15;2.03;;;1.23;;
59922;SDS011;45778;51.142;3.732;2023-03-23T01:17:42;4.40;;;1.88;;
59922;SDS011;45778;51.142;3.732;2023-03-23T01:20:09;1.70;;;0.93;;
59922;SDS011;45778;51.142;3.732;2023-03-23T01:22:36;1.08;;;0.80;;
59922;SDS011;45778;51.142;3.732;2023-03-23T01:25:03;2.70;;;1.17;;
59922;SDS011;45778;51.142;3.732;2023-03-23T01:27:29;3.30;;;1.00;;
59922;SDS011;45778;51.142;3.732;2023-03-23T01:29:55;1.88;;;1.08;;
59922;SDS011;45778;51.142;3.732;2023-03-23T01:32:21;3.97;;;1.50;;
59922;SDS011;45778;51.142;3.732;2023-03-23T01:34:46;4.60;;;1.40;;
59922;SDS011;45778;51.142;3.732;2023-03-23T01:37:12;1.83;;;1.10;;
59922;SDS011;45778;51.142;3.732;2023-03-23T01:39:38;3.65;;;1.38;;
59922;SDS011;45778;51.142;3.732;2023-03-23T01:42:04;2.47;;;1.38;;
59922;SDS011;45778;51.142;3.732;2023-03-23T01:46:55;3.72;;;1.17;;
59922;SDS011;45778;51.142;3.732;2023-03-23T01:49:23;1.23;;;0.80;;
59922;SDS011;45778;51.142;3.732;2023-03-23T01:52:04;3.58;;;1.50;;
59922;SDS011;45778;51.142;3.732;2023-03-23T01:54:33;2.65;;;1.00;;
59922;SDS011;45778;51.142;3.732;2023-03-23T01:57:03;2.60;;;0.95;;
59922;SDS011;45778;51.142;3.732;2023-03-23T01:59:32;2.75;;;1.00;;
59922;SDS011;45778;51.142;3.732;2023-03-23T02:02:00;3.13;;;0.80;;
59922;SDS011;45778;51.142;3.732;2023-03-23T02:04:27;0.98;;;0.82;;
59922;SDS011;45778;51.142;3.732;2023-03-23T02:06:54;1.75;;;0.90;;
59922;SDS011;45778;51.142;3.732;2023-03-23T02:09:22;5.07;;;1.30;;
59922;SDS011;45778;51.142;3.732;2023-03-23T02:11:50;4.03;;;0.85;;
59922;SDS011;45778;51.142;3.732;2023-03-23T02:14:17;2.05;;;1.20;;
59922;SDS011;45778;51.142;3.732;2023-03-23T02:16:55;1.90;;;0.82;;
59922;SDS011;45778;51.142;3.732;2023-03-23T02:24:56;2.55;;;0.77;;
59922;SDS011;45778;51.142;3.732;2023-03-23T02:38:38;5.53;;;1.00;;
59922;SDS011;45778;51.142;3.732;2023-03-23T02:41:19;5.43;;;1.42;;
59922;SDS011;45778;51.142;3.732;2023-03-23T02:43:48;3.90;;;0.80;;
59922;SDS011;45778;51.142;3.732;2023-03-23T02:46:15;4.22;;;1.02;;
59922;SDS011;45778;51.142;3.732;2023-03-23T02:48:41;4.20;;;1.33;;
59922;SDS011;45778;51.142;3.732;2023-03-23T02:51:10;1.75;;;0.70;;
59922;SDS011;45778;51.142;3.732;2023-03-23T02:53:37;4.40;;;1.10;;
59922;SDS011;45778;51.142;3.732;2023-03-23T02:56:06;1.30;;;0.40;;
59922;SDS011;45778;51.142;3.732;2023-03-23T02:58:34;4.93;;;0.98;;
59922;SDS011;45778;51.142;3.732;2023-03-23T03:01:10;3.45;;;0.98;;
59922;SDS011;45778;51.142;3.732;2023-03-23T03:04:05;2.80;;;0.73;;
59922;SDS011;45778;51.142;3.732;2023-03-23T03:09:34;2.95;;;0.77;;
59922;SDS011;45778;51.142;3.732;2023-03-23T03:12:05;4.18;;;0.73;;
59922;SDS011;45778;51.142;3.732;2023-03-23T03:14:39;5.95;;;1.40;;
59922;SDS011;45778;51.142;3.732;2023-03-23T03:17:25;6.72;;;1.10;;
59922;SDS011;45778;51.142;3.732;2023-03-23T03:19:55;3.58;;;1.17;;
59922;SDS011;45778;51.142;3.732;2023-03-23T03:22:22;6.10;;;1.10;;
59922;SDS011;45778;51.142;3.732;2023-03-23T03:24:53;3.25;;;0.93;;
59922;SDS011;45778;51.142;3.732;2023-03-23T03:27:21;2.33;;;0.80;;
59922;SDS011;45778;51.142;3.732;2023-03-23T03:29:49;5.47;;;0.75;;
59922;SDS011;45778;51.142;3.732;2023-03-23T03:32:20;1.48;;;0.68;;
59922;SDS011;45778;51.142;3.732;2023-03-23T03:34:49;3.78;;;1.02;;
59922;SDS011;45778;51.142;3.732;2023-03-23T03:37:15;2.40;;;0.77;;
59922;SDS011;45778;51.142;3.732;2023-03-23T03:39:43;4.18;;;0.73;;
59922;SDS011;45778;51.142;3.732;2023-03-23T03:42:09;4.47;;;1.10;;
59922;SDS011;45778;51.142;3.732;2023-03-23T03:44:35;3.63;;;0.65;;
59922;SDS011;45778;51.142;3.732;2023-03-23T03:47:01;3.80;;;1.00;;
59922;SDS011;45778;51.142;3.732;2023-03-23T03:49:27;4.57;;;0.88;;
59922;SDS011;45778;51.142;3.732;2023-03-23T03:51:52;1.55;;;0.70;;
59922;SDS011;45778;51.142;3.732;2023-03-23T03:54:18;2.65;;;0.75;;
59922;SDS011;45778;51.142;3.732;2023-03-23T03:56:44;3.33;;;1.13;;
59922;SDS011;45778;51.142;3.732;2023-03-23T03:59:11;6.60;;;1.10;;
59922;SDS011;45778;51.142;3.732;2023-03-23T04:01:37;3.95;;;1.23;;
59922;SDS011;45778;51.142;3.732;2023-03-23T04:04:03;1.63;;;0.77;;
59922;SDS011;45778;51.142;3.732;2023-03-23T04:06:31;3.50;;;0.88;;
59922;SDS011;45778;51.142;3.732;2023-03-23T04:09:01;3.40;;;0.80;;
59922;SDS011;45778;51.142;3.732;2023-03-23T04:11:30;5.90;;;1.15;;
59922;SDS011;45778;51.142;3.732;2023-03-23T04:13:56;2.53;;;1.08;;
59922;SDS011;45778;51.142;3.732;2023-03-23T04:16:22;5.85;;;1.58;;
59922;SDS011;45778;51.142;3.732;2023-03-23T04:18:48;6.97;;;1.33;;
59922;SDS011;45778;51.142;3.732;2023-03-23T04:21:14;3.55;;;0.70;;
59922;SDS011;45778;51.142;3.732;2023-03-23T04:23:40;5.00;;;1.13;;
59922;SDS011;45778;51.142;3.732;2023-03-23T04:26:07;4.43;;;1.13;;
59922;SDS011;45778;51.142;3.732;2023-03-23T04:28:32;7.35;;;0.95;;
59922;SDS011;45778;51.142;3.732;2023-03-23T04:30:59;7.05;;;1.00;;
59922;SDS011;45778;51.142;3.732;2023-03-23T04:33:26;7.53;;;1.40;;
59922;SDS011;45778;51.142;3.732;2023-03-23T04:35:56;5.53;;;1.13;;
59922;SDS011;45778;51.142;3.732;2023-03-23T04:38:26;6.45;;;1.15;;
59922;SDS011;45778;51.142;3.732;2023-03-23T04:40:52;6.55;;;1.27;;
59922;SDS011;45778;51.142;3.732;2023-03-23T04:43:20;7.30;;;1.48;;
59922;SDS011;45778;51.142;3.732;2023-03-23T04:45:57;5.68;;;1.30;;
59922;SDS011;45778;51.142;3.732;2023-03-23T04:48:25;9.05;;;1.52;;
59922;SDS011;45778;51.142;3.732;2023-03-23T04:50:53;3.97;;;1.30;;
59922;SDS011;45778;51.142;3.732;2023-03-23T04:53:19;7.53;;;1.27;;
59922;SDS011;45778;51.142;3.732;2023-03-23T04:55:45;5.63;;;1.52;;
59922;SDS011;45778;51.142;3.732;2023-03-23T04:58:12;7.78;;;1.75;;
59922;SDS011;45778;51.142;3.732;2023-03-23T05:00:39;9.77;;;1.67;;
59922;SDS011;45778;51.142;3.732;2023-03-23T05:03:09;5.15;;;1.15;;
59922;SDS011;45778;51.142;3.732;2023-03-23T05:05:35;6.00;;;1.55;;
59922;SDS011;45778;51.142;3.732;2023-03-23T05:08:01;6.32;;;1.77;;
59922;SDS011;45778;51.142;3.732;2023-03-23T05:10:27;5.57;;;1.75;;
59922;SDS011;45778;51.142;3.732;2023-03-23T05:12:53;16.58;;;3.47;;
59922;SDS011;45778;51.142;3.732;2023-03-23T05:15:19;5.85;;;1.15;;
59922;SDS011;45778;51.142;3.732;2023-03-23T05:17:45;6.57;;;1.70;;
59922;SDS011;45778;51.142;3.732;2023-03-23T05:20:14;8.98;;;1.48;;
59922;SDS011;45778;51.142;3.732;2023-03-23T05:22:44;8.32;;;1.90;;
59922;SDS011;45778;51.142;3.732;2023-03-23T05:25:13;6.75;;;1.20;;
59922;SDS011;45778;51.142;3.732;2023-03-23T05:27:39;6.22;;;1.58;;
59922;SDS011;45778;51.142;3.732;2023-03-23T05:30:08;6.38;;;1.48;;
59922;SDS011;45778;51.142;3.732;2023-03-23T05:32:34;5.70;;;1.38;;
59922;SDS011;45778;51.142;3.732;2023-03-23T05:35:02;7.57;;;1.13;;
59922;SDS011;45778;51.142;3.732;2023-03-23T05:37:28;20.08;;;1.38;;
59922;SDS011;45778;51.142;3.732;2023-03-23T05:39:57;6.35;;;1.30;;
59922;SDS011;45778;51.142;3.732;2023-03-23T05:42:30;6.28;;;2.22;;
59922;SDS011;45778;51.142;3.732;2023-03-23T05:44:56;3.78;;;1.33;;
59922;SDS011;45778;51.142;3.732;2023-03-23T05:47:23;10.82;;;2.33;;
59922;SDS011;45778;51.142;3.732;2023-03-23T05:49:50;4.95;;;1.50;;
59922;SDS011;45778;51.142;3.732;2023-03-23T05:52:17;7.43;;;2.25;;
59922;SDS011;45778;51.142;3.732;2023-03-23T05:54:43;4.57;;;1.30;;
59922;SDS011;45778;51.142;3.732;2023-03-23T05:57:09;6.38;;;1.63;;
59922;SDS011;45778;51.142;3.732;2023-03-23T05:59:36;5.55;;;1.20;;
59922;SDS011;45778;51.142;3.732;2023-03-23T06:02:02;5.72;;;1.13;;
59922;SDS011;45778;51.142;3.732;2023-03-23T06:04:28;7.15;;;1.23;;
59922;SDS011;45778;51.142;3.732;2023-03-23T06:06:55;7.82;;;1.60;;
59922;SDS011;45778;51.142;3.732;2023-03-23T06:09:21;7.15;;;1.60;;
59922;SDS011;45778;51.142;3.732;2023-03-23T06:11:48;7.05;;;1.08;;
59922;SDS011;45778;51.142;3.732;2023-03-23T06:14:14;4.93;;;1.10;;
59922;SDS011;45778;51.142;3.732;2023-03-23T06:16:41;5.82;;;1.13;;
59922;SDS011;45778;51.142;3.732;2023-03-23T06:19:07;5.72;;;0.70;;
59922;SDS011;45778;51.142;3.732;2023-03-23T06:21:33;4.72;;;0.93;;
59922;SDS011;45778;51.142;3.732;2023-03-23T06:23:59;3.80;;;0.80;;
59922;SDS011;45778;51.142;3.732;2023-03-23T06:26:27;7.05;;;0.70;;
59922;SDS011;45778;51.142;3.732;2023-03-23T06:28:56;6.38;;;0.82;;
59922;SDS011;45778;51.142;3.732;2023-03-23T06:31:22;4.13;;;0.85;;
59922;SDS011;45778;51.142;3.732;2023-03-23T06:33:48;5.05;;;0.82;;
59922;SDS011;45778;51.142;3.732;2023-03-23T06:36:15;10.02;;;1.35;;
59922;SDS011;45778;51.142;3.732;2023-03-23T06:38:41;3.03;;;0.80;;
59922;SDS011;45778;51.142;3.732;2023-03-23T06:41:07;4.45;;;0.82;;
59922;SDS011;45778;51.142;3.732;2023-03-23T06:43:34;4.82;;;0.70;;
59922;SDS011;45778;51.142;3.732;2023-03-23T06:46:02;5.15;;;1.10;;
59922;SDS011;45778;51.142;3.732;2023-03-23T06:48:28;4.63;;;1.05;;
59922;SDS011;45778;51.142;3.732;2023-03-23T06:50:54;3.05;;;0.95;;
59922;SDS011;45778;51.142;3.732;2023-03-23T06:53:20;2.50;;;1.27;;
59922;SDS011;45778;51.142;3.732;2023-03-23T06:55:46;6.30;;;1.10;;
59922;SDS011;45778;51.142;3.732;2023-03-23T06:58:12;4.05;;;0.95;;
59922;SDS011;45778;51.142;3.732;2023-03-23T07:00:38;3.80;;;1.00;;
59922;SDS011;45778;51.142;3.732;2023-03-23T07:03:05;10.02;;;1.40;;
59922;SDS011;45778;51.142;3.732;2023-03-23T07:05:32;3.28;;;0.70;;
59922;SDS011;45778;51.142;3.732;2023-03-23T07:07:59;4.28;;;0.80;;
59922;SDS011;45778;51.142;3.732;2023-03-23T07:10:24;2.75;;;0.80;;
59922;SDS011;45778;51.142;3.732;2023-03-23T07:12:50;2.47;;;0.90;;
59922;SDS011;45778;51.142;3.732;2023-03-23T07:15:16;6.40;;;0.70;;
59922;SDS011;45778;51.142;3.732;2023-03-23T07:17:41;3.72;;;1.25;;
59922;SDS011;45778;51.142;3.732;2023-03-23T07:20:07;3.75;;;0.75;;
59922;SDS011;45778;51.142;3.732;2023-03-23T07:22:33;2.03;;;0.50;;
59922;SDS011;45778;51.142;3.732;2023-03-23T07:24:59;2.95;;;0.80;;
59922;SDS011;45778;51.142;3.732;2023-03-23T07:27:25;1.50;;;0.70;;
59922;SDS011;45778;51.142;3.732;2023-03-23T07:29:51;5.07;;;0.82;;
59922;SDS011;45778;51.142;3.732;2023-03-23T07:32:17;4.80;;;0.57;;
59922;SDS011;45778;51.142;3.732;2023-03-23T07:34:42;3.88;;;0.80;;
59922;SDS011;45778;51.142;3.732;2023-03-23T07:37:08;4.03;;;1.05;;
59922;SDS011;45778;51.142;3.732;2023-03-23T07:39:34;2.53;;;0.95;;
59922;SDS011;45778;51.142;3.732;2023-03-23T07:42:00;4.53;;;1.00;;
59922;SDS011;45778;51.142;3.732;2023-03-23T07:44:26;3.60;;;0.85;;
59922;SDS011;45778;51.142;3.732;2023-03-23T07:46:52;3.58;;;0.98;;
59922;SDS011;45778;51.142;3.732;2023-03-23T07:49:18;7.60;;;1.20;;
59922;SDS011;45778;51.142;3.732;2023-03-23T07:51:44;4.07;;;1.00;;
59922;SDS011;45778;51.142;3.732;2023-03-23T07:54:11;3.75;;;1.25;;
59922;SDS011;45778;51.142;3.732;2023-03-23T07:56:37;8.13;;;1.45;;
59922;SDS011;45778;51.142;3.732;2023-03-23T07:59:06;10.50;;;1.73;;
59922;SDS011;45778;51.142;3.732;2023-03-23T08:01:32;6.13;;;1.23;;
59922;SDS011;45778;51.142;3.732;2023-03-23T08:03:58;4.68;;;1.25;;
59922;SDS011;45778;51.142;3.732;2023-03-23T08:06:25;8.18;;;1.10;;
59922;SDS011;45778;51.142;3.732;2023-03-23T08:08:51;9.93;;;1.08;;
59922;SDS011;45778;51.142;3.732;2023-03-23T08:11:17;5.90;;;0.88;;
59922;SDS011;45778;51.142;3.732;2023-03-23T08:13:44;8.27;;;1.35;;
59922;SDS011;45778;51.142;3.732;2023-03-23T08:16:10;5.57;;;1.10;;
59922;SDS011;45778;51.142;3.732;2023-03-23T08:18:36;4.93;;;0.95;;
59922;SDS011;45778;51.142;3.732;2023-03-23T08:21:04;6.78;;;1.17;;
59922;SDS011;45778;51.142;3.732;2023-03-23T08:23:33;5.05;;;0.90;;
59922;SDS011;45778;51.142;3.732;2023-03-23T08:25:59;3.90;;;1.02;;
59922;SDS011;45778;51.142;3.732;2023-03-23T08:28:26;5.07;;;0.95;;
59922;SDS011;45778;51.142;3.732;2023-03-23T08:30:52;3.97;;;1.20;;
59922;SDS011;45778;51.142;3.732;2023-03-23T08:33:18;6.65;;;1.33;;
59922;SDS011;45778;51.142;3.732;2023-03-23T08:35:43;3.40;;;1.17;;
59922;SDS011;45778;51.142;3.732;2023-03-23T08:38:12;5.40;;;1.10;;
59922;SDS011;45778;51.142;3.732;2023-03-23T08:40:38;8.48;;;1.27;;
59922;SDS011;45778;51.142;3.732;2023-03-23T08:43:04;6.63;;;1.00;;
59922;SDS011;45778;51.142;3.732;2023-03-23T08:45:31;5.07;;;1.63;;
59922;SDS011;45778;51.142;3.732;2023-03-23T08:47:57;8.77;;;1.20;;
59922;SDS011;45778;51.142;3.732;2023-03-23T08:50:25;6.93;;;1.50;;
59922;SDS011;45778;51.142;3.732;2023-03-23T08:52:53;6.57;;;1.00;;
59922;SDS011;45778;51.142;3.732;2023-03-23T08:55:19;4.85;;;1.30;;
59922;SDS011;45778;51.142;3.732;2023-03-23T08:57:46;4.70;;;1.45;;
59922;SDS011;45778;51.142;3.732;2023-03-23T09:00:16;9.93;;;2.45;;
59922;SDS011;45778;51.142;3.732;2023-03-23T09:02:44;11.35;;;1.88;;
59922;SDS011;45778;51.142;3.732;2023-03-23T09:05:12;7.32;;;1.67;;
59922;SDS011;45778;51.142;3.732;2023-03-23T09:07:39;9.25;;;1.23;;
59922;SDS011;45778;51.142;3.732;2023-03-23T09:10:08;7.18;;;1.50;;
59922;SDS011;45778;51.142;3.732;2023-03-23T09:12:34;6.82;;;1.58;;
59922;SDS011;45778;51.142;3.732;2023-03-23T09:15:01;6.00;;;1.25;;
59922;SDS011;45778;51.142;3.732;2023-03-23T09:17:47;10.98;;;2.55;;
59922;SDS011;45778;51.142;3.732;2023-03-23T09:20:16;3.53;;;1.38;;
59922;SDS011;45778;51.142;3.732;2023-03-23T09:22:47;8.73;;;1.10;;
59922;SDS011;45778;51.142;3.732;2023-03-23T09:25:16;5.95;;;0.90;;
59922;SDS011;45778;51.142;3.732;2023-03-23T09:27:48;6.13;;;1.00;;
59922;SDS011;45778;51.142;3.732;2023-03-23T09:30:18;4.45;;;1.38;;
59922;SDS011;45778;51.142;3.732;2023-03-23T09:32:45;6.57;;;1.23;;
59922;SDS011;45778;51.142;3.732;2023-03-23T09:35:13;2.28;;;1.00;;
59922;SDS011;45778;51.142;3.732;2023-03-23T09:37:41;6.82;;;0.98;;
59922;SDS011;45778;51.142;3.732;2023-03-23T09:40:15;6.20;;;0.80;;
59922;SDS011;45778;51.142;3.732;2023-03-23T09:54:21;4.97;;;0.90;;
59922;SDS011;45778;51.142;3.732;2023-03-23T09:56:53;2.65;;;0.90;;
59922;SDS011;45778;51.142;3.732;2023-03-23T09:59:23;4.63;;;1.00;;
59922;SDS011;45778;51.142;3.732;2023-03-23T10:02:21;5.10;;;0.98;;
59922;SDS011;45778;51.142;3.732;2023-03-23T10:04:54;6.47;;;1.63;;
59922;SDS011;45778;51.142;3.732;2023-03-23T10:07:24;6.70;;;1.10;;
59922;SDS011;45778;51.142;3.732;2023-03-23T10:09:55;7.07;;;0.90;;
59922;SDS011;45778;51.142;3.732;2023-03-23T10:18:24;10.82;;;2.10;;
59922;SDS011;45778;51.142;3.732;2023-03-23T10:28:37;3.13;;;0.93;;
59922;SDS011;45778;51.142;3.732;2023-03-23T10:31:08;4.05;;;0.90;;
59922;SDS011;45778;51.142;3.732;2023-03-23T10:33:39;4.10;;;1.38;;
59922;SDS011;45778;51.142;3.732;2023-03-23T10:39:13;11.88;;;1.52;;
59922;SDS011;45778;51.142;3.732;2023-03-23T10:41:43;6.55;;;1.55;;
59922;SDS011;45778;51.142;3.732;2023-03-23T10:44:21;7.25;;;1.00;;
59922;SDS011;45778;51.142;3.732;2023-03-23T10:49:25;5.95;;;1.63;;
59922;SDS011;45778;51.142;3.732;2023-03-23T10:54:55;6.05;;;1.45;;
59922;SDS011;45778;51.142;3.732;2023-03-23T10:59:49;5.50;;;1.15;;
59922;SDS011;45778;51.142;3.732;2023-03-23T11:02:19;6.28;;;1.83;;
59922;SDS011;45778;51.142;3.732;2023-03-23T11:07:25;5.95;;;1.77;;
59922;SDS011;45778;51.142;3.732;2023-03-23T11:12:32;6.47;;;1.20;;
59922;SDS011;45778;51.142;3.732;2023-03-23T11:17:54;7.78;;;1.30;;
59922;SDS011;45778;51.142;3.732;2023-03-23T11:20:25;9.23;;;1.40;;
59922;SDS011;45778;51.142;3.732;2023-03-23T11:22:53;3.60;;;1.30;;
59922;SDS011;45778;51.142;3.732;2023-03-23T11:25:20;9.40;;;1.90;;
59922;SDS011;45778;51.142;3.732;2023-03-23T11:27:46;8.90;;;1.15;;
59922;SDS011;45778;51.142;3.732;2023-03-23T11:30:30;4.55;;;1.40;;
59922;SDS011;45778;51.142;3.732;2023-03-23T11:32:58;7.65;;;1.90;;
59922;SDS011;45778;51.142;3.732;2023-03-23T11:35:27;4.82;;;1.67;;
59922;SDS011;45778;51.142;3.732;2023-03-23T11:37:55;9.65;;;2.22;;
59922;SDS011;45778;51.142;3.732;2023-03-23T11:40:30;6.47;;;1.23;;
59922;SDS011;45778;51.142;3.732;2023-03-23T11:42:58;8.45;;;1.90;;
59922;SDS011;45778;51.142;3.732;2023-03-23T11:45:33;8.45;;;1.33;;
59922;SDS011;45778;51.142;3.732;2023-03-23T11:50:27;9.30;;;2.30;;
59922;SDS011;45778;51.142;3.732;2023-03-23T11:53:09;8.55;;;2.03;;
59922;SDS011;45778;51.142;3.732;2023-03-23T11:58:55;8.32;;;2.00;;
59922;SDS011;45778;51.142;3.732;2023-03-23T12:07:00;8.60;;;2.03;;
59922;SDS011;45778;51.142;3.732;2023-03-23T12:09:47;11.60;;;2.80;;
59922;SDS011;45778;51.142;3.732;2023-03-23T12:20:51;14.07;;;3.00;;
59922;SDS011;45778;51.142;3.732;2023-03-23T12:26:04;11.75;;;2.40;;
59922;SDS011;45778;51.142;3.732;2023-03-23T12:31:17;10.77;;;1.90;;
59922;SDS011;45778;51.142;3.732;2023-03-23T12:48:09;5.53;;;1.35;;
59922;SDS011;45778;51.142;3.732;2023-03-23T12:59:03;6.95;;;1.60;;
59922;SDS011;45778;51.142;3.732;2023-03-23T13:01:36;11.75;;;1.63;;
59922;SDS011;45778;51.142;3.732;2023-03-23T13:06:36;7.57;;;1.50;;
59922;SDS011;45778;51.142;3.732;2023-03-23T13:11:48;10.82;;;2.50;;
59922;SDS011;45778;51.142;3.732;2023-03-23T13:14:22;12.73;;;2.65;;
59922;SDS011;45778;51.142;3.732;2023-03-23T13:16:55;5.13;;;1.13;;
59922;SDS011;45778;51.142;3.732;2023-03-23T13:22:24;10.13;;;1.65;;
59922;SDS011;45778;51.142;3.732;2023-03-23T13:24:59;9.85;;;1.83;;
59922;SDS011;45778;51.142;3.732;2023-03-23T13:27:28;4.90;;;1.27;;
59922;SDS011;45778;51.142;3.732;2023-03-23T13:29:55;12.48;;;1.88;;
59922;SDS011;45778;51.142;3.732;2023-03-23T13:32:28;8.00;;;1.73;;
59922;SDS011;45778;51.142;3.732;2023-03-23T13:35:01;11.38;;;2.08;;
59922;SDS011;45778;51.142;3.732;2023-03-23T13:37:30;9.55;;;2.00;;
59922;SDS011;45778;51.142;3.732;2023-03-23T13:39:57;13.88;;;2.72;;
59922;SDS011;45778;51.142;3.732;2023-03-23T13:42:36;13.38;;;2.70;;
59922;SDS011;45778;51.142;3.732;2023-03-23T13:48:04;9.27;;;3.03;;
59922;SDS011;45778;51.142;3.732;2023-03-23T13:50:55;12.10;;;2.25;;
59922;SDS011;45778;51.142;3.732;2023-03-23T13:56:18;5.25;;;1.40;;
59922;SDS011;45778;51.142;3.732;2023-03-23T13:58:47;12.48;;;1.95;;
59922;SDS011;45778;51.142;3.732;2023-03-23T14:01:30;8.60;;;1.63;;
59922;SDS011;45778;51.142;3.732;2023-03-23T14:03:59;12.63;;;2.22;;
59922;SDS011;45778;51.142;3.732;2023-03-23T14:06:26;12.68;;;2.08;;
59922;SDS011;45778;51.142;3.732;2023-03-23T14:09:03;14.27;;;3.70;;
59922;SDS011;45778;51.142;3.732;2023-03-23T14:11:31;13.68;;;1.83;;
59922;SDS011;45778;51.142;3.732;2023-03-23T14:14:05;13.52;;;2.33;;
59922;SDS011;45778;51.142;3.732;2023-03-23T14:16:42;8.93;;;1.65;;
59922;SDS011;45778;51.142;3.732;2023-03-23T14:19:28;7.22;;;2.10;;
59922;SDS011;45778;51.142;3.732;2023-03-23T14:21:56;8.55;;;1.67;;
59922;SDS011;45778;51.142;3.732;2023-03-23T14:24:27;9.18;;;1.88;;
59922;SDS011;45778;51.142;3.732;2023-03-23T14:29:39;11.13;;;2.05;;
59922;SDS011;45778;51.142;3.732;2023-03-23T14:32:06;4.70;;;1.42;;
59922;SDS011;45778;51.142;3.732;2023-03-23T14:34:35;6.90;;;1.92;;
59922;SDS011;45778;51.142;3.732;2023-03-23T14:37:01;6.20;;;1.33;;
59922;SDS011;45778;51.142;3.732;2023-03-23T14:39:28;7.22;;;1.70;;
59922;SDS011;45778;51.142;3.732;2023-03-23T14:42:02;5.93;;;1.58;;
59922;SDS011;45778;51.142;3.732;2023-03-23T14:44:32;6.97;;;2.05;;
59922;SDS011;45778;51.142;3.732;2023-03-23T14:47:09;8.85;;;2.00;;
59922;SDS011;45778;51.142;3.732;2023-03-23T14:49:44;8.77;;;2.00;;
59922;SDS011;45778;51.142;3.732;2023-03-23T14:54:37;5.68;;;1.52;;
59922;SDS011;45778;51.142;3.732;2023-03-23T14:57:26;7.97;;;1.75;;
59922;SDS011;45778;51.142;3.732;2023-03-23T14:59:53;9.32;;;2.00;;
59922;SDS011;45778;51.142;3.732;2023-03-23T15:04:53;6.20;;;1.88;;
59922;SDS011;45778;51.142;3.732;2023-03-23T15:07:22;9.70;;;2.10;;
59922;SDS011;45778;51.142;3.732;2023-03-23T15:09:54;6.13;;;1.70;;
59922;SDS011;45778;51.142;3.732;2023-03-23T15:12:23;10.05;;;2.20;;
59922;SDS011;45778;51.142;3.732;2023-03-23T15:14:53;8.25;;;2.05;;
59922;SDS011;45778;51.142;3.732;2023-03-23T15:17:23;7.40;;;1.67;;
59922;SDS011;45778;51.142;3.732;2023-03-23T15:19:52;8.70;;;2.05;;
59922;SDS011;45778;51.142;3.732;2023-03-23T15:22:26;6.30;;;1.80;;
59922;SDS011;45778;51.142;3.732;2023-03-23T15:27:33;7.57;;;2.17;;
59922;SDS011;45778;51.142;3.732;2023-03-23T15:32:49;7.90;;;1.77;;
59922;SDS011;45778;51.142;3.732;2023-03-23T15:35:19;4.22;;;1.30;;
59922;SDS011;45778;51.142;3.732;2023-03-23T15:37:57;10.70;;;2.08;;
59922;SDS011;45778;51.142;3.732;2023-03-23T15:40:26;11.50;;;2.05;;
59922;SDS011;45778;51.142;3.732;2023-03-23T15:48:19;6.97;;;2.35;;
59922;SDS011;45778;51.142;3.732;2023-03-23T15:50:46;11.23;;;2.50;;
59922;SDS011;45778;51.142;3.732;2023-03-23T15:55:52;5.90;;;1.63;;
59922;SDS011;45778;51.142;3.732;2023-03-23T15:58:18;8.43;;;2.03;;
59922;SDS011;45778;51.142;3.732;2023-03-23T16:00:44;8.32;;;2.17;;
59922;SDS011;45778;51.142;3.732;2023-03-23T16:03:12;8.32;;;1.63;;
59922;SDS011;45778;51.142;3.732;2023-03-23T16:05:43;9.23;;;1.65;;
59922;SDS011;45778;51.142;3.732;2023-03-23T16:08:10;8.15;;;2.13;;
59922;SDS011;45778;51.142;3.732;2023-03-23T16:10:36;11.35;;;2.20;;
59922;SDS011;45778;51.142;3.732;2023-03-23T16:13:02;9.05;;;2.47;;
59922;SDS011;45778;51.142;3.732;2023-03-23T16:15:29;11.15;;;2.17;;
59922;SDS011;45778;51.142;3.732;2023-03-23T16:17:55;9.50;;;2.53;;
59922;SDS011;45778;51.142;3.732;2023-03-23T16:20:21;14.57;;;3.30;;
59922;SDS011;45778;51.142;3.732;2023-03-23T16:22:48;11.30;;;3.78;;
59922;SDS011;45778;51.142;3.732;2023-03-23T16:25:15;15.98;;;3.20;;
59922;SDS011;45778;51.142;3.732;2023-03-23T16:27:41;9.80;;;2.63;;
59922;SDS011;45778;51.142;3.732;2023-03-23T16:30:10;12.55;;;2.65;;
59922;SDS011;45778;51.142;3.732;2023-03-23T16:32:38;12.77;;;2.83;;
59922;SDS011;45778;51.142;3.732;2023-03-23T16:35:04;8.48;;;2.75;;
59922;SDS011;45778;51.142;3.732;2023-03-23T16:37:30;12.35;;;2.00;;
59922;SDS011;45778;51.142;3.732;2023-03-23T16:39:58;13.02;;;2.25;;
59922;SDS011;45778;51.142;3.732;2023-03-23T16:42:23;8.80;;;1.80;;
59922;SDS011;45778;51.142;3.732;2023-03-23T16:44:49;7.28;;;2.05;;
59922;SDS011;45778;51.142;3.732;2023-03-23T16:47:16;9.27;;;2.60;;
59922;SDS011;45778;51.142;3.732;2023-03-23T16:49:43;8.25;;;2.08;;
59922;SDS011;45778;51.142;3.732;2023-03-23T16:52:09;6.47;;;1.77;;
59922;SDS011;45778;51.142;3.732;2023-03-23T16:54:35;8.48;;;1.63;;
59922;SDS011;45778;51.142;3.732;2023-03-23T16:57:00;11.30;;;1.73;;
59922;SDS011;45778;51.142;3.732;2023-03-23T16:59:27;5.32;;;1.50;;
59922;SDS011;45778;51.142;3.732;2023-03-23T17:01:52;7.53;;;1.80;;
59922;SDS011;45778;51.142;3.732;2023-03-23T17:04:18;11.75;;;1.73;;
59922;SDS011;45778;51.142;3.732;2023-03-23T17:06:44;10.32;;;1.77;;
59922;SDS011;45778;51.142;3.732;2023-03-23T17:09:10;8.52;;;1.83;;
59922;SDS011;45778;51.142;3.732;2023-03-23T17:11:36;8.18;;;1.45;;
59922;SDS011;45778;51.142;3.732;2023-03-23T17:14:02;10.48;;;1.92;;
59922;SDS011;45778;51.142;3.732;2023-03-23T17:16:28;7.57;;;1.70;;
59922;SDS011;45778;51.142;3.732;2023-03-23T17:18:53;12.00;;;2.20;;
59922;SDS011;45778;51.142;3.732;2023-03-23T17:21:19;8.73;;;2.30;;
59922;SDS011;45778;51.142;3.732;2023-03-23T17:23:49;12.45;;;2.25;;
59922;SDS011;45778;51.142;3.732;2023-03-23T17:26:15;6.97;;;2.03;;